Time;durP1;ratioP1;P1;durP2;ratioP2;P2;SDS_P1;SDS_P2;PMS_P1;PMS_P2;Temp;Humidity;BMP_temperature;BMP_pressure;BME280_temperature;BME280_humidity;BME280_pressure;Samples;Min_cycle;Max_cycle;Signal;HPM_P1;HPM_P2
2024/01/18 00:07:11;;;;;;;;;;;-0.80;99.90;;;;;;6701263;88;20040;-79
2024/01/18 00:17:12;;;;;;;;;;;-0.80;99.90;;;;;;6687863;88;20666;-80
2024/01/18 00:27:12;;;;;;;;;;;-0.80;99.90;;;;;;6684674;88;20616;-78
2024/01/18 00:37:14;;;;;;;;;;;-0.80;99.90;;;;;;6699656;77;20100;-75
2024/01/18 00:47:14;;;;;;;;;;;-0.80;99.90;;;;;;6719158;88;20080;-75
2024/01/18 00:57:15;;;;;;;;;;;-0.90;99.90;;;;;;6729728;88;20693;-76
2024/01/18 01:07:15;;;;;;;;;;;-0.70;99.90;;;;;;6719633;88;20551;-76
2024/01/18 01:17:15;;;;;;;;;;;-0.80;99.90;;;;;;6721701;88;20066;-76
2024/01/18 01:27:16;;;;;;;;;;;-0.90;99.90;;;;;;6727906;88;20047;-76
2024/01/18 01:37:16;;;;;;;;;;;-0.80;99.90;;;;;;6736763;88;20825;-75
2024/01/18 01:47:17;;;;;;;;;;;-0.90;99.90;;;;;;6740284;88;20083;-76
2024/01/18 01:57:19;;;;;;;;;;;-0.80;99.90;;;;;;6748947;88;20074;-76
2024/01/18 02:07:20;;;;;;;;;;;-0.80;99.90;;;;;;6742205;88;20080;-77
2024/01/18 02:17:21;;;;;;;;;;;-0.80;99.90;;;;;;6748246;88;20068;-76
2024/01/18 02:27:21;;;;;;;;;;;-0.90;99.90;;;;;;6742613;88;20067;-75
2024/01/18 02:37:22;;;;;;;;;;;-0.90;99.90;;;;;;6746902;88;20063;-76
2024/01/18 02:47:23;;;;;;;;;;;-0.90;99.90;;;;;;6716365;88;20093;-76
2024/01/18 02:57:24;;;;;;;;;;;-1.00;99.90;;;;;;6728372;88;20157;-76
2024/01/18 03:07:24;;;;;;;;;;;-1.10;99.90;;;;;;6702213;88;20088;-76
2024/01/18 03:17:25;;;;;;;;;;;-1.10;99.90;;;;;;6714679;88;20129;-76
2024/01/18 03:27:26;;;;;;;;;;;-1.10;99.90;;;;;;6710896;88;20077;-75
2024/01/18 03:37:26;;;;;;;;;;;-1.10;99.90;;;;;;6714316;88;20526;-74
2024/01/18 03:47:27;;;;;;;;;;;-1.20;99.90;;;;;;6719236;88;20090;-75
2024/01/18 03:57:27;;;;;;;;;;;-1.20;99.90;;;;;;6721726;88;20090;-76
2024/01/18 04:07:28;;;;;;;;;;;-1.20;99.90;;;;;;6733172;88;20206;-75
2024/01/18 04:17:28;;;;;;;;;;;-1.30;99.90;;;;;;6723552;88;20601;-76
2024/01/18 04:27:29;;;;;;;;;;;-1.30;99.90;;;;;;6730819;88;20231;-76
2024/01/18 04:37:29;;;;;;;;;;;-1.30;99.90;;;;;;6724909;88;20067;-75
2024/01/18 04:47:29;;;;;;;;;;;-1.40;99.90;;;;;;6717507;88;20081;-76
2024/01/18 04:57:35;;;;;;;;;;;-1.30;99.90;;;;;;6728495;88;20057;-75
2024/01/18 05:07:36;;;;;;;;;;;-1.30;99.90;;;;;;6727731;88;20074;-75
2024/01/18 05:17:39;;;;;;;;;;;-1.30;99.90;;;;;;6725849;88;20076;-76
2024/01/18 05:27:40;;;;;;;;;;;-1.30;99.90;;;;;;6727393;88;20062;-77
2024/01/18 05:37:40;;;;;;;;;;;-1.40;99.90;;;;;;6733020;88;20132;-75
2024/01/18 05:47:41;;;;;;;;;;;-1.50;99.90;;;;;;6725400;88;20510;-76
2024/01/18 05:57:41;;;;;;;;;;;-1.40;99.90;;;;;;6727594;88;20071;-75
2024/01/18 06:07:42;;;;;;;;;;;-1.40;99.90;;;;;;6728029;88;20529;-77
2024/01/18 06:17:42;;;;;;;;;;;-1.40;99.90;;;;;;6725131;88;20517;-77
2024/01/18 06:27:43;;;;;;;;;;;-1.30;99.90;;;;;;6733318;88;20073;-76
2024/01/18 06:37:43;;;;;;;;;;;-1.40;99.90;;;;;;6729310;88;20539;-77
2024/01/18 06:47:44;;;;;;;;;;;-1.40;99.90;;;;;;6734815;88;20043;-78
2024/01/18 06:57:45;;;;;;;;;;;-1.30;99.90;;;;;;6731913;88;20050;-78
2024/01/18 07:07:46;;;;;;;;;;;-1.40;99.90;;;;;;6730528;88;20076;-78
2024/01/18 07:17:47;;;;;;;;;;;-1.30;99.90;;;;;;6729364;88;20071;-77
2024/01/18 07:27:47;;;;;;;;;;;-1.30;99.90;;;;;;6729083;88;20228;-76
2024/01/18 07:37:48;;;;;;;;;;;-1.30;99.90;;;;;;6725431;88;20121;-76
2024/01/18 07:47:48;;;;;;;;;;;-1.30;99.90;;;;;;6727193;88;20058;-75
2024/01/18 07:57:49;;;;;;;;;;;-1.20;99.90;;;;;;6730543;88;20558;-75
2024/01/18 08:07:49;;;;;;;;;;;-1.20;99.90;;;;;;6729924;88;20099;-77
2024/01/18 08:17:50;;;;;;;;;;;-1.10;99.90;;;;;;6721901;88;20045;-75
2024/01/18 08:27:56;;;;;;;;;;;-1.10;99.90;;;;;;6725675;88;20146;-75
2024/01/18 08:37:56;;;;;;;;;;;-1.10;99.90;;;;;;6724235;88;20131;-76
2024/01/18 08:47:57;;;;;;;;;;;-1.00;99.90;;;;;;6724131;88;20067;-76
2024/01/18 08:57:58;;;;;;;;;;;-0.80;99.90;;;;;;6728845;88;20127;-75
2024/01/18 09:08:00;;;;;;;;;;;-0.70;99.90;;;;;;6730927;88;20076;-76
2024/01/18 09:18:01;;;;;;;;;;;-0.80;99.90;;;;;;6724893;88;20060;-76
2024/01/18 09:28:01;;;;;;;;;;;-0.80;99.90;;;;;;6723608;88;20192;-75
2024/01/18 09:38:03;;;;;;;;;;;-0.70;99.90;;;;;;6723306;88;20092;-76
2024/01/18 09:48:03;;;;;;;;;;;-0.50;99.90;;;;;;6724837;88;20078;-75
2024/01/18 09:58:07;;;;;;;;;;;-0.30;99.90;;;;;;6732793;88;20062;-76
2024/01/18 10:08:08;;;;;;;;;;;-0.20;99.90;;;;;;6727173;88;20083;-76
2024/01/18 10:18:08;;;;;;;;;;;0.00;99.90;;;;;;6723981;88;20105;-76
2024/01/18 10:28:10;;;;;;;;;;;0.00;99.90;;;;;;6728338;88;20099;-77
2024/01/18 10:38:10;;;;;;;;;;;0.00;99.90;;;;;;6726129;88;20076;-75
2024/01/18 10:48:11;;;;;;;;;;;0.00;99.90;;;;;;6723342;88;20043;-76
2024/01/18 10:58:11;;;;;;;;;;;0.10;99.90;;;;;;6733010;88;20478;-76
2024/01/18 11:08:15;;;;;;;;;;;0.00;99.90;;;;;;6726739;88;20068;-76
2024/01/18 11:18:16;;;;;;;;;;;0.30;99.90;;;;;;6727245;88;20184;-76
2024/01/18 11:28:23;;;;;;;;;;;1.40;99.90;;;;;;6726198;88;20058;-77
2024/01/18 11:38:24;;;;;;;;;;;1.90;99.90;;;;;;6720569;88;20079;-77
2024/01/18 11:48:25;;;;;;;;;;;2.40;99.90;;;;;;6726221;88;20555;-77
2024/01/18 11:58:25;;;;;;;;;;;2.80;99.90;;;;;;6727871;88;20088;-76
2024/01/18 12:08:26;;;;;;;;;;;2.60;99.90;;;;;;6729437;88;20051;-77
2024/01/18 12:18:37;;;;;;;;;;;2.80;99.90;;;;;;6727447;88;20058;-76
2024/01/18 12:28:38;;;;;;;;;;;3.20;99.90;;;;;;6730918;88;20528;-76
2024/01/18 12:48:42;;;;;;;;;;;3.10;99.90;;;;;;6738741;88;20069;-80
2024/01/18 12:58:42;;;;;;;;;;;3.20;99.90;;;;;;6750245;88;20076;-80
2024/01/18 13:08:43;;;;;;;;;;;3.70;99.90;;;;;;6750108;88;20059;-81
2024/01/18 13:18:44;;;;;;;;;;;4.90;99.90;;;;;;6750030;88;20731;-80
2024/01/18 13:28:44;;;;;;;;;;;5.30;99.90;;;;;;6752272;88;20031;-80
2024/01/18 13:38:45;;;;;;;;;;;4.50;99.90;;;;;;6752473;88;20039;-79
2024/01/18 13:48:45;;;;;;;;;;;4.60;99.90;;;;;;6734783;88;20027;-80
2024/01/18 13:58:47;;;;;;;;;;;4.10;99.90;;;;;;6734328;88;20035;-81
2024/01/18 14:08:47;;;;;;;;;;;5.00;99.90;;;;;;6728582;88;20069;-80
2024/01/18 14:18:48;;;;;;;;;;;5.20;99.90;;;;;;6728731;88;20655;-80
2024/01/18 14:28:48;;;;;;;;;;;4.70;99.90;;;;;;6721271;88;20536;-80
2024/01/18 14:38:49;;;;;;;;;;;4.40;99.90;;;;;;6722220;88;20067;-80
2024/01/18 14:48:49;;;;;;;;;;;4.10;99.90;;;;;;6740625;88;20073;-81
2024/01/18 14:58:50;;;;;;;;;;;2.90;99.90;;;;;;6733789;88;20205;-80
2024/01/18 15:08:50;;;;;;;;;;;2.80;99.90;;;;;;6732725;88;20644;-80
2024/01/18 15:18:51;;;;;;;;;;;2.30;99.90;;;;;;6739170;88;20067;-79
2024/01/18 15:28:51;;;;;;;;;;;2.10;99.90;;;;;;6725083;88;20080;-79
2024/01/18 15:38:52;;;;;;;;;;;1.60;99.90;;;;;;6717548;88;20152;-79
2024/01/18 15:48:57;;;;;;;;;;;1.20;99.90;;;;;;6704326;88;20111;-80
2024/01/18 15:58:58;;;;;;;;;;;0.90;99.90;;;;;;6699358;88;20123;-79
2024/01/18 16:08:58;;;;;;;;;;;0.70;99.90;;;;;;6705938;88;20571;-79
2024/01/18 16:18:59;;;;;;;;;;;0.40;99.90;;;;;;6704581;88;20063;-80
2024/01/18 16:28:59;;;;;;;;;;;0.20;99.90;;;;;;6723381;88;20053;-79
2024/01/18 16:39:00;;;;;;;;;;;0.00;99.90;;;;;;6705676;88;20190;-80
2024/01/18 16:49:02;;;;;;;;;;;-0.10;99.90;;;;;;6706195;88;20539;-80
2024/01/18 16:59:03;;;;;;;;;;;-0.30;99.90;;;;;;6707537;88;20088;-80
2024/01/18 17:09:05;;;;;;;;;;;-0.40;99.90;;;;;;6700880;88;20091;-78
2024/01/18 17:19:05;;;;;;;;;;;-0.50;99.90;;;;;;6703124;88;20087;-78
2024/01/18 17:29:06;;;;;;;;;;;-0.50;99.90;;;;;;6702536;88;20074;-79
2024/01/18 17:39:07;;;;;;;;;;;-0.50;99.90;;;;;;6698600;88;20064;-78
2024/01/18 17:49:07;;;;;;;;;;;-0.30;99.90;;;;;;6700504;88;20080;-79
2024/01/18 17:59:08;;;;;;;;;;;-0.20;99.90;;;;;;6706559;88;20558;-78
2024/01/18 18:09:11;;;;;;;;;;;-0.10;99.90;;;;;;6705132;88;20067;-78
2024/01/18 18:19:11;;;;;;;;;;;-0.10;99.90;;;;;;6706287;88;20059;-79
2024/01/18 18:29:12;;;;;;;;;;;-0.10;99.90;;;;;;6707497;88;20644;-79
2024/01/18 18:39:12;;;;;;;;;;;-0.10;99.90;;;;;;6703828;88;20161;-79
2024/01/18 18:49:13;;;;;;;;;;;-0.10;99.90;;;;;;6705740;88;20094;-79
2024/01/18 18:59:13;;;;;;;;;;;-0.10;99.90;;;;;;6714020;88;20056;-81
2024/01/18 19:09:14;;;;;;;;;;;-0.10;99.90;;;;;;6711060;88;20043;-78
2024/01/18 19:19:14;;;;;;;;;;;-0.10;99.90;;;;;;6711652;88;20134;-77
2024/01/18 19:29:15;;;;;;;;;;;0.00;99.90;;;;;;6713149;88;20060;-79
2024/01/18 19:46:27;;;;;;;;;;;0.00;99.90;;;;;;6806232;86;20624;-78
2024/01/18 19:56:28;;;;;;;;;;;0.10;99.90;;;;;;6779087;87;20196;-78
2024/01/18 20:06:28;;;;;;;;;;;0.10;99.90;;;;;;6783563;87;20108;-79
2024/01/18 20:16:29;;;;;;;;;;;0.00;99.90;;;;;;6782120;87;20121;-79
2024/01/18 20:26:29;;;;;;;;;;;-0.10;99.90;;;;;;6787300;87;20125;-79
2024/01/18 20:36:29;;;;;;;;;;;-0.10;99.90;;;;;;6775080;87;20172;-77
2024/01/18 20:46:32;;;;;;;;;;;0.00;99.90;;;;;;6784675;87;20503;-79
2024/01/18 20:56:33;;;;;;;;;;;0.10;99.90;;;;;;6787997;87;20116;-78
2024/01/18 21:06:33;;;;;;;;;;;0.00;99.90;;;;;;6773038;87;20066;-78
2024/01/18 21:16:34;;;;;;;;;;;-0.20;99.90;;;;;;6768847;87;20133;-79
2024/01/18 21:26:35;;;;;;;;;;;-0.40;99.90;;;;;;6771328;87;20053;-79
2024/01/18 21:36:38;;;;;;;;;;;-0.70;99.90;;;;;;6775440;87;20588;-80
2024/01/18 21:46:42;;;;;;;;;;;-0.80;99.90;;;;;;6771729;87;20058;-79
2024/01/18 21:56:42;;;;;;;;;;;-0.90;99.90;;;;;;6772501;87;20067;-82
2024/01/18 22:06:43;;;;;;;;;;;-1.00;99.90;;;;;;6771180;87;20487;-80
2024/01/18 22:16:43;;;;;;;;;;;-0.80;99.90;;;;;;6763517;87;20062;-79
2024/01/18 22:26:44;;;;;;;;;;;-0.70;99.90;;;;;;6768465;87;20471;-78
2024/01/18 22:36:44;;;;;;;;;;;-0.50;99.90;;;;;;6763322;87;20061;-79
2024/01/18 22:46:45;;;;;;;;;;;-0.50;99.90;;;;;;6765041;87;20102;-79
2024/01/18 22:56:45;;;;;;;;;;;-0.80;99.90;;;;;;6764698;87;20064;-80
2024/01/18 23:06:46;;;;;;;;;;;-1.00;99.90;;;;;;6766379;87;20077;-80
2024/01/18 23:16:46;;;;;;;;;;;-1.10;99.90;;;;;;6764254;87;20103;-80
2024/01/18 23:26:47;;;;;;;;;;;-1.10;99.90;;;;;;6765889;87;20146;-79
2024/01/18 23:47:06;;;;;;;;;;;-0.90;99.90;;;;;;6778231;87;20089;-79
2024/01/18 23:57:07;;;;;;;;;;;-0.70;99.90;;;;;;6774616;87;20067;-79
